Time;durP1;ratioP1;P1;durP2;ratioP2;P2;SDS_P1;SDS_P2;PMS_P1;PMS_P2;Temp;Humidity;BMP_temperature;BMP_pressure;BME280_temperature;BME280_humidity;BME280_pressure;Samples;Min_cycle;Max_cycle;Signal;HPM_P1;HPM_P2
2021/07/31 00:00:39;;;;;;;1.20;0.90;;;21.20;68.80;;;;;;5014527;28;20030;-75
2021/07/31 00:03:04;;;;;;;2.70;1.05;;;21.30;68.90;;;;;;5015147;28;20399;-75
2021/07/31 00:05:30;;;;;;;1.63;1.10;;;21.20;68.90;;;;;;5013376;28;20061;-75
2021/07/31 00:07:55;;;;;;;2.75;1.20;;;21.20;69.00;;;;;;5013497;28;20467;-76
2021/07/31 00:10:21;;;;;;;2.53;1.00;;;21.20;69.10;;;;;;5014639;28;20026;-75
2021/07/31 00:12:47;;;;;;;3.88;1.20;;;21.10;69.40;;;;;;5013355;28;20034;-75
2021/07/31 00:15:12;;;;;;;2.17;1.10;;;21.10;69.40;;;;;;5013730;28;20026;-75
2021/07/31 00:17:38;;;;;;;6.03;1.20;;;21.10;69.40;;;;;;5014355;28;20124;-75
2021/07/31 00:20:04;;;;;;;2.17;1.00;;;21.00;69.20;;;;;;5014529;28;20021;-75
2021/07/31 00:22:29;;;;;;;2.45;1.08;;;20.90;69.50;;;;;;5014275;28;20018;-75
2021/07/31 00:24:55;;;;;;;1.52;1.05;;;20.90;69.50;;;;;;5015123;28;20084;-75
2021/07/31 00:27:21;;;;;;;4.28;1.10;;;20.80;69.50;;;;;;5014219;28;20032;-76
2021/07/31 00:29:46;;;;;;;5.70;1.33;;;20.80;69.20;;;;;;5013530;28;20117;-76
2021/07/31 00:32:12;;;;;;;1.88;0.85;;;20.70;69.80;;;;;;5013498;28;20036;-75
2021/07/31 00:34:38;;;;;;;3.00;0.70;;;20.70;68.10;;;;;;5012935;28;20521;-75
2021/07/31 00:37:03;;;;;;;2.78;0.90;;;20.70;67.80;;;;;;5013342;28;20028;-75
2021/07/31 00:39:31;;;;;;;2.00;0.65;;;20.70;67.00;;;;;;5014000;28;20034;-75
2021/07/31 00:41:56;;;;;;;2.65;0.80;;;20.60;67.60;;;;;;5012961;28;20025;-75
2021/07/31 00:44:22;;;;;;;3.75;0.77;;;20.60;67.40;;;;;;5012621;28;20034;-75
2021/07/31 00:46:47;;;;;;;2.70;0.80;;;20.60;67.40;;;;;;5013253;28;20530;-75
2021/07/31 00:49:14;;;;;;;3.17;0.80;;;20.60;67.60;;;;;;5012172;28;20497;-75
2021/07/31 00:51:40;;;;;;;3.90;1.17;;;20.50;67.80;;;;;;5012587;28;20116;-75
2021/07/31 00:54:06;;;;;;;3.60;0.80;;;20.50;68.10;;;;;;5012917;28;20172;-75
2021/07/31 00:56:32;;;;;;;1.92;0.80;;;20.50;68.20;;;;;;5012124;28;20026;-76
2021/07/31 00:58:58;;;;;;;2.67;1.00;;;20.50;68.30;;;;;;5014220;28;20108;-75
2021/07/31 01:01:23;;;;;;;2.83;1.05;;;20.50;68.40;;;;;;5012462;28;20168;-76
2021/07/31 01:03:49;;;;;;;3.20;0.98;;;20.50;68.60;;;;;;5012465;28;20049;-75
2021/07/31 01:06:15;;;;;;;1.85;0.77;;;20.50;68.70;;;;;;5013018;28;20078;-75
2021/07/31 01:08:40;;;;;;;2.58;0.85;;;20.40;68.90;;;;;;5012292;28;20481;-75
2021/07/31 01:11:06;;;;;;;5.93;0.88;;;20.40;68.80;;;;;;5012729;28;20073;-75
2021/07/31 01:13:33;;;;;;;3.58;1.33;;;20.40;68.90;;;;;;5013468;28;20049;-75
2021/07/31 01:16:07;;;;;;;2.28;1.23;;;20.40;68.80;;;;;;5012620;28;20057;-75
2021/07/31 01:18:34;;;;;;;2.60;0.95;;;20.40;69.10;;;;;;5012093;28;20460;-76
2021/07/31 01:20:59;;;;;;;5.07;1.08;;;20.40;69.10;;;;;;5013723;28;20030;-76
2021/07/31 01:23:25;;;;;;;1.05;0.80;;;20.40;69.30;;;;;;5013234;28;20018;-76
2021/07/31 01:25:51;;;;;;;3.83;0.95;;;20.30;69.20;;;;;;5012081;28;20051;-75
2021/07/31 01:28:17;;;;;;;2.53;0.90;;;20.30;69.40;;;;;;5012377;28;20072;-75
2021/07/31 01:30:43;;;;;;;2.35;0.90;;;20.20;69.40;;;;;;5011995;28;20049;-75
2021/07/31 01:33:09;;;;;;;3.28;0.93;;;20.20;69.60;;;;;;5012519;28;20121;-75
2021/07/31 01:35:34;;;;;;;4.72;0.82;;;20.20;70.10;;;;;;5013031;28;20036;-76
2021/07/31 01:38:01;;;;;;;1.88;0.90;;;20.10;68.30;;;;;;5012377;28;20084;-75
2021/07/31 01:40:28;;;;;;;1.42;0.70;;;20.10;67.80;;;;;;5011931;28;20049;-75
2021/07/31 01:42:56;;;;;;;3.88;0.88;;;20.10;67.80;;;;;;5012159;28;20065;-75
2021/07/31 01:45:25;;;;;;;4.07;0.93;;;20.10;67.70;;;;;;5011745;28;20029;-76
2021/07/31 01:47:51;;;;;;;1.67;0.70;;;20.10;67.60;;;;;;5012017;28;20034;-75
2021/07/31 01:50:17;;;;;;;1.25;0.80;;;20.00;67.60;;;;;;5013288;28;20034;-76
2021/07/31 01:52:46;;;;;;;3.53;0.93;;;20.00;67.70;;;;;;5012881;28;20033;-76
2021/07/31 01:55:12;;;;;;;3.88;1.40;;;19.90;67.80;;;;;;5012026;28;20030;-75
2021/07/31 01:57:38;;;;;;;3.33;0.93;;;19.90;67.90;;;;;;5012718;28;20130;-75
2021/07/31 02:00:05;;;;;;;3.85;0.95;;;19.90;68.10;;;;;;5011793;28;20053;-75
2021/07/31 02:02:30;;;;;;;3.72;0.80;;;19.90;68.10;;;;;;5011123;28;20054;-75
2021/07/31 02:04:56;;;;;;;2.15;0.52;;;19.80;68.30;;;;;;5013115;28;20530;-75
2021/07/31 02:07:22;;;;;;;3.33;1.00;;;19.80;68.50;;;;;;5011535;28;20038;-79
2021/07/31 02:09:48;;;;;;;2.58;0.80;;;19.80;69.00;;;;;;5011813;28;20096;-75
2021/07/31 02:12:14;;;;;;;3.85;1.15;;;19.80;68.30;;;;;;5011915;28;20029;-75
2021/07/31 02:14:40;;;;;;;5.97;0.90;;;19.70;68.70;;;;;;5012601;28;20120;-76
2021/07/31 02:17:06;;;;;;;4.72;0.73;;;19.70;68.60;;;;;;5011715;28;20052;-75
2021/07/31 02:19:32;;;;;;;3.65;0.80;;;19.70;68.40;;;;;;5011066;28;20038;-75
2021/07/31 02:21:59;;;;;;;5.32;0.70;;;19.70;68.50;;;;;;5011766;28;20030;-75
2021/07/31 02:24:25;;;;;;;1.45;0.52;;;19.70;68.50;;;;;;5012393;28;20025;-77
2021/07/31 02:26:50;;;;;;;3.55;1.10;;;19.70;68.20;;;;;;5012952;28;20060;-75
2021/07/31 02:29:16;;;;;;;2.17;0.70;;;19.70;68.30;;;;;;5011668;28;20068;-75
2021/07/31 02:31:42;;;;;;;5.85;0.93;;;19.70;68.40;;;;;;5011228;28;20029;-75
2021/07/31 02:34:07;;;;;;;3.15;0.80;;;19.70;68.40;;;;;;5011546;28;20026;-76
2021/07/31 02:36:33;;;;;;;2.03;0.82;;;19.70;68.30;;;;;;5011074;28;20490;-76
2021/07/31 02:38:59;;;;;;;2.80;0.80;;;19.60;68.40;;;;;;5012464;28;20066;-75
2021/07/31 02:41:24;;;;;;;2.38;1.23;;;19.50;68.70;;;;;;5012294;28;20033;-77
2021/07/31 02:43:50;;;;;;;2.30;0.73;;;19.50;68.80;;;;;;5011559;28;20034;-75
2021/07/31 02:46:16;;;;;;;4.45;0.80;;;19.60;68.60;;;;;;5011622;28;20033;-75
2021/07/31 02:48:41;;;;;;;4.75;0.90;;;19.50;68.40;;;;;;5011219;28;20034;-75
2021/07/31 02:51:10;;;;;;;1.65;0.50;;;19.50;68.20;;;;;;5011475;28;20100;-75
2021/07/31 02:53:36;;;;;;;3.28;0.80;;;19.50;67.90;;;;;;5010987;28;20496;-76
2021/07/31 02:56:02;;;;;;;2.65;0.73;;;19.50;67.90;;;;;;5011151;28;20122;-76
2021/07/31 02:58:27;;;;;;;3.25;0.77;;;19.40;67.80;;;;;;5010969;28;20129;-75
2021/07/31 03:00:53;;;;;;;2.08;0.68;;;19.50;68.10;;;;;;5011383;28;20060;-75
2021/07/31 03:03:19;;;;;;;4.72;0.70;;;19.40;68.10;;;;;;5010819;28;20045;-76
2021/07/31 03:05:55;;;;;;;2.88;0.90;;;19.40;68.20;;;;;;5010871;28;20224;-75
2021/07/31 03:08:21;;;;;;;5.15;0.93;;;19.30;68.40;;;;;;5011417;28;20030;-75
2021/07/31 03:10:55;;;;;;;4.55;0.95;;;19.30;68.50;;;;;;5010939;28;20033;-75
2021/07/31 03:13:21;;;;;;;4.30;0.60;;;19.30;68.60;;;;;;5015104;28;20030;-75
2021/07/31 03:15:47;;;;;;;2.20;0.80;;;19.30;68.70;;;;;;5014444;28;20034;-75
2021/07/31 03:18:13;;;;;;;2.55;0.68;;;19.30;68.80;;;;;;5014473;28;20399;-75
2021/07/31 03:20:53;;;;;;;3.17;0.80;;;19.30;68.90;;;;;;5014242;28;20033;-75
2021/07/31 03:23:21;;;;;;;2.95;1.23;;;19.30;69.00;;;;;;5014761;28;20490;-75
2021/07/31 03:25:46;;;;;;;5.28;0.95;;;19.20;69.00;;;;;;5015048;28;20040;-75
2021/07/31 03:28:13;;;;;;;2.03;0.68;;;19.20;69.00;;;;;;5014907;28;20038;-75
2021/07/31 03:30:44;;;;;;;1.27;0.60;;;19.20;69.10;;;;;;5015449;28;20459;-75
2021/07/31 03:33:11;;;;;;;3.22;0.90;;;19.20;69.10;;;;;;5014653;28;20026;-75
2021/07/31 03:35:38;;;;;;;5.07;0.95;;;19.20;69.10;;;;;;5013947;28;20467;-76
2021/07/31 03:38:04;;;;;;;3.25;0.60;;;19.20;69.10;;;;;;5014295;28;20038;-76
2021/07/31 03:40:30;;;;;;;4.70;0.82;;;19.10;69.10;;;;;;5014114;28;20531;-76
2021/07/31 03:42:55;;;;;;;1.90;0.80;;;19.00;69.20;;;;;;5014403;28;20445;-75
2021/07/31 03:45:21;;;;;;;2.65;0.70;;;19.00;69.40;;;;;;5015610;28;20023;-76
2021/07/31 03:47:46;;;;;;;5.28;1.08;;;19.00;69.60;;;;;;5013788;28;20030;-75
2021/07/31 03:50:12;;;;;;;2.53;0.85;;;19.00;69.40;;;;;;5014243;28;20026;-75
2021/07/31 03:52:38;;;;;;;2.65;0.75;;;19.00;69.40;;;;;;5013770;28;20507;-76
2021/07/31 03:55:05;;;;;;;1.48;0.60;;;19.00;69.30;;;;;;5014165;28;20080;-75
2021/07/31 03:57:31;;;;;;;2.72;0.63;;;19.00;69.40;;;;;;5013544;28;20030;-76
2021/07/31 03:59:57;;;;;;;1.40;0.80;;;19.00;69.40;;;;;;5014162;28;20029;-75
2021/07/31 04:02:22;;;;;;;3.25;0.80;;;19.00;69.50;;;;;;5013871;28;20050;-75
2021/07/31 04:04:48;;;;;;;2.90;0.90;;;19.00;69.40;;;;;;5013496;28;20184;-75
2021/07/31 04:07:14;;;;;;;3.33;0.70;;;18.90;69.50;;;;;;5013950;28;20434;-75
2021/07/31 04:09:39;;;;;;;2.75;1.15;;;18.90;69.20;;;;;;5013314;28;20037;-76
2021/07/31 04:12:05;;;;;;;5.28;0.70;;;18.90;69.40;;;;;;5015162;28;20069;-75
2021/07/31 04:14:31;;;;;;;3.85;0.73;;;18.90;69.40;;;;;;5013346;28;20414;-76
2021/07/31 04:16:57;;;;;;;1.77;0.68;;;18.90;69.30;;;;;;5013830;28;20473;-75
2021/07/31 04:19:23;;;;;;;4.13;0.60;;;18.90;69.20;;;;;;5013894;28;20180;-76
2021/07/31 04:21:54;;;;;;;3.72;0.63;;;18.80;69.20;;;;;;5013382;28;20510;-76
2021/07/31 04:24:20;;;;;;;2.08;0.60;;;18.80;69.30;;;;;;5013853;28;20034;-75
2021/07/31 04:26:46;;;;;;;1.58;0.65;;;18.80;69.10;;;;;;5013298;28;20033;-76
2021/07/31 04:29:12;;;;;;;3.90;0.73;;;18.80;69.20;;;;;;5013619;28;20038;-75
2021/07/31 04:31:37;;;;;;;2.50;0.60;;;18.80;69.10;;;;;;5013301;28;20478;-75
2021/07/31 04:34:03;;;;;;;3.75;0.70;;;18.80;69.40;;;;;;5013822;28;20041;-75
2021/07/31 04:36:28;;;;;;;2.05;0.52;;;18.80;69.10;;;;;;5013517;28;20026;-76
2021/07/31 04:38:54;;;;;;;3.95;1.15;;;18.80;69.10;;;;;;5013645;28;20442;-75
2021/07/31 04:41:20;;;;;;;2.50;0.80;;;18.80;69.10;;;;;;5013304;28;20030;-75
2021/07/31 04:43:45;;;;;;;1.83;0.70;;;18.80;69.20;;;;;;5013683;28;20030;-75
2021/07/31 04:46:11;;;;;;;6.20;0.70;;;18.80;69.50;;;;;;5013130;28;20065;-75
2021/07/31 04:48:37;;;;;;;3.47;0.73;;;18.70;69.60;;;;;;5012572;28;20030;-75
2021/07/31 04:51:04;;;;;;;3.20;0.60;;;18.70;69.80;;;;;;5013289;28;20088;-75
2021/07/31 04:53:30;;;;;;;3.63;0.70;;;18.70;70.00;;;;;;5013032;28;20032;-76
2021/07/31 04:55:57;;;;;;;4.72;0.95;;;18.70;70.10;;;;;;5013872;28;20040;-75
2021/07/31 04:58:23;;;;;;;2.17;0.77;;;18.70;70.40;;;;;;5013010;28;20042;-75
2021/07/31 05:00:50;;;;;;;1.98;0.90;;;18.70;70.40;;;;;;5012531;28;20030;-75
2021/07/31 05:03:16;;;;;;;3.63;0.80;;;18.70;70.40;;;;;;5014214;28;20128;-75
2021/07/31 05:05:45;;;;;;;1.45;0.90;;;18.70;70.40;;;;;;5012306;28;20164;-75
2021/07/31 05:08:11;;;;;;;3.53;0.80;;;18.60;70.30;;;;;;5012428;28;20068;-75
2021/07/31 05:10:45;;;;;;;3.53;0.82;;;18.60;70.20;;;;;;5012095;28;20057;-76
2021/07/31 05:13:11;;;;;;;1.77;0.60;;;18.60;70.40;;;;;;5012444;28;20029;-75
2021/07/31 05:15:39;;;;;;;3.60;0.80;;;18.60;70.40;;;;;;5012046;28;20063;-75
2021/07/31 05:18:06;;;;;;;3.45;0.50;;;18.60;70.50;;;;;;5012464;28;20518;-75
2021/07/31 05:20:33;;;;;;;3.40;0.80;;;18.60;70.40;;;;;;5013907;28;20037;-75
2021/07/31 05:23:00;;;;;;;4.15;0.63;;;18.60;70.50;;;;;;5012360;28;20495;-75
2021/07/31 05:25:26;;;;;;;5.00;0.98;;;18.60;70.80;;;;;;5012203;28;20041;-76
2021/07/31 05:27:52;;;;;;;4.65;0.90;;;18.70;70.50;;;;;;5011775;28;20034;-75
2021/07/31 05:30:18;;;;;;;6.05;0.77;;;18.70;70.50;;;;;;5012504;28;20033;-75
2021/07/31 05:32:44;;;;;;;3.03;0.80;;;18.70;70.50;;;;;;5013200;28;20487;-75
2021/07/31 05:35:10;;;;;;;2.05;0.60;;;18.70;70.30;;;;;;5012146;28;20037;-75
2021/07/31 05:37:36;;;;;;;1.45;0.52;;;18.70;70.30;;;;;;5011696;28;20026;-76
2021/07/31 05:40:02;;;;;;;5.00;0.70;;;18.70;70.40;;;;;;5013409;28;20030;-75
2021/07/31 05:42:28;;;;;;;3.45;1.13;;;18.70;70.00;;;;;;5012159;28;20080;-75
2021/07/31 05:44:57;;;;;;;1.83;0.90;;;18.70;70.40;;;;;;5011605;28;20030;-75
2021/07/31 05:47:26;;;;;;;3.90;0.88;;;18.70;69.80;;;;;;5013443;28;20026;-75
2021/07/31 05:49:53;;;;;;;6.22;0.90;;;18.80;70.00;;;;;;5012838;28;20026;-76
2021/07/31 05:52:20;;;;;;;4.40;1.10;;;18.80;69.60;;;;;;5013335;28;20033;-75
2021/07/31 05:54:46;;;;;;;4.30;1.00;;;18.80;69.50;;;;;;5012930;28;20053;-76
2021/07/31 05:57:12;;;;;;;2.20;0.70;;;18.80;68.70;;;;;;5012032;28;20402;-75
2021/07/31 05:59:37;;;;;;;5.53;0.73;;;18.90;69.00;;;;;;5011483;28;20030;-76
2021/07/31 06:02:09;;;;;;;3.80;1.00;;;18.90;68.70;;;;;;5011862;28;20053;-76
2021/07/31 06:04:38;;;;;;;1.88;0.60;;;18.90;68.60;;;;;;5011717;28;20033;-75
2021/07/31 06:07:06;;;;;;;3.28;0.68;;;18.90;68.70;;;;;;5012058;28;20059;-75
2021/07/31 06:09:36;;;;;;;2.33;0.80;;;19.00;69.00;;;;;;5012082;28;20116;-75
2021/07/31 06:12:03;;;;;;;1.65;0.52;;;18.90;68.80;;;;;;5013489;28;20049;-75
2021/07/31 06:14:29;;;;;;;2.72;0.90;;;19.00;68.70;;;;;;5013295;28;20088;-75
2021/07/31 06:16:55;;;;;;;1.83;0.60;;;19.00;68.80;;;;;;5011138;28;20033;-75
2021/07/31 06:19:21;;;;;;;2.85;0.75;;;19.00;68.70;;;;;;5011618;28;20034;-75
2021/07/31 06:21:47;;;;;;;4.47;0.88;;;19.10;68.50;;;;;;5012131;28;20114;-75
2021/07/31 06:24:13;;;;;;;2.25;0.50;;;19.10;67.80;;;;;;5013142;28;20034;-75
2021/07/31 06:26:38;;;;;;;2.17;0.60;;;19.10;68.10;;;;;;5011213;28;20084;-76
2021/07/31 06:29:04;;;;;;;2.97;0.90;;;19.10;68.30;;;;;;5011608;28;20030;-75
2021/07/31 06:31:30;;;;;;;2.83;0.75;;;19.20;67.80;;;;;;5011862;28;20521;-75
2021/07/31 06:33:58;;;;;;;3.47;1.10;;;19.20;67.90;;;;;;5010956;28;20141;-75
2021/07/31 06:36:23;;;;;;;4.65;0.63;;;19.20;67.90;;;;;;5011555;28;20471;-75
2021/07/31 06:38:49;;;;;;;2.13;0.80;;;19.20;67.60;;;;;;5011009;28;20467;-75
2021/07/31 06:41:14;;;;;;;1.77;0.68;;;19.20;67.60;;;;;;5012820;28;20029;-75
2021/07/31 06:43:40;;;;;;;4.13;0.60;;;19.20;67.40;;;;;;5011059;28;20036;-76
2021/07/31 06:46:24;;;;;;;6.05;0.82;;;19.30;67.80;;;;;;5012124;28;20416;-75
2021/07/31 06:48:53;;;;;;;2.55;0.75;;;19.30;67.20;;;;;;5014916;28;20032;-75
2021/07/31 06:51:20;;;;;;;4.25;1.40;;;19.30;67.20;;;;;;5015642;28;20026;-75
2021/07/31 06:53:50;;;;;;;3.13;1.15;;;19.30;66.40;;;;;;5014762;28;20022;-76
2021/07/31 06:56:15;;;;;;;2.05;0.82;;;19.40;66.80;;;;;;5015472;28;20096;-75
2021/07/31 06:58:41;;;;;;;2.08;0.80;;;19.40;67.40;;;;;;5014546;28;20442;-76
2021/07/31 07:01:14;;;;;;;0.80;0.65;;;19.50;67.00;;;;;;5016289;28;20486;-75
2021/07/31 07:03:41;;;;;;;2.25;0.75;;;19.50;66.20;;;;;;5014299;28;20050;-78
2021/07/31 07:06:09;;;;;;;1.77;0.80;;;19.50;66.10;;;;;;5014984;28;20029;-75
2021/07/31 07:08:35;;;;;;;3.00;0.70;;;19.50;66.00;;;;;;5015896;28;20467;-75
2021/07/31 07:11:02;;;;;;;3.97;0.60;;;19.60;66.80;;;;;;5014368;28;20026;-75
2021/07/31 07:13:28;;;;;;;3.33;0.90;;;19.60;66.90;;;;;;5014820;28;20129;-75
2021/07/31 07:15:54;;;;;;;4.03;0.70;;;19.70;66.40;;;;;;5014314;28;20080;-75
2021/07/31 07:18:20;;;;;;;2.30;0.77;;;19.80;66.40;;;;;;5014573;28;20037;-75
2021/07/31 07:20:47;;;;;;;2.80;0.55;;;19.80;65.70;;;;;;5015476;28;20026;-75
2021/07/31 07:23:12;;;;;;;1.92;0.70;;;19.80;65.60;;;;;;5015865;28;20092;-75
2021/07/31 07:25:41;;;;;;;2.70;0.70;;;19.90;65.80;;;;;;5014334;28;20116;-75
2021/07/31 07:28:07;;;;;;;4.13;0.57;;;19.90;66.90;;;;;;5014793;28;20030;-75
2021/07/31 07:30:32;;;;;;;5.65;0.93;;;19.90;65.90;;;;;;5014540;28;20463;-75
2021/07/31 07:32:58;;;;;;;3.40;0.95;;;20.00;65.20;;;;;;5014180;28;20356;-75
2021/07/31 07:35:24;;;;;;;3.80;0.80;;;20.00;66.30;;;;;;5014435;28;20169;-75
2021/07/31 07:37:49;;;;;;;1.38;0.60;;;20.10;66.40;;;;;;5013759;28;20356;-75
2021/07/31 07:40:15;;;;;;;2.28;0.70;;;20.10;65.50;;;;;;5015640;28;20033;-75
2021/07/31 07:42:41;;;;;;;1.80;0.70;;;20.10;64.40;;;;;;5014366;28;20073;-75
2021/07/31 07:45:08;;;;;;;2.17;0.60;;;20.10;64.30;;;;;;5014327;28;20026;-75
2021/07/31 07:47:35;;;;;;;3.40;0.68;;;20.20;65.10;;;;;;5014208;28;20021;-75
2021/07/31 07:50:04;;;;;;;2.78;0.70;;;20.20;65.10;;;;;;5013699;28;20566;-76
2021/07/31 07:52:30;;;;;;;2.50;0.85;;;20.30;65.20;;;;;;5014078;28;20037;-76
2021/07/31 07:54:55;;;;;;;3.75;0.90;;;20.20;64.90;;;;;;5014992;28;20029;-76
2021/07/31 07:57:21;;;;;;;4.63;1.42;;;20.30;65.40;;;;;;5013563;28;20486;-75
2021/07/31 07:59:47;;;;;;;2.08;1.10;;;20.30;65.50;;;;;;5013350;28;20061;-76
2021/07/31 08:02:12;;;;;;;2.78;0.80;;;20.30;65.60;;;;;;5013710;28;20046;-75
2021/07/31 08:04:38;;;;;;;3.53;1.10;;;20.30;64.10;;;;;;5015164;28;20030;-75
2021/07/31 08:07:04;;;;;;;2.55;1.20;;;20.40;64.80;;;;;;5014549;28;20037;-73
2021/07/31 08:09:30;;;;;;;4.50;0.90;;;20.40;65.80;;;;;;5013776;28;20034;-75
2021/07/31 08:11:55;;;;;;;4.68;0.80;;;20.50;65.20;;;;;;5014485;28;20030;-75
2021/07/31 08:14:21;;;;;;;1.70;0.90;;;20.50;63.90;;;;;;5013355;28;20053;-75
2021/07/31 08:16:46;;;;;;;4.05;0.70;;;20.50;63.80;;;;;;5013180;28;20026;-75
2021/07/31 08:19:12;;;;;;;3.22;0.60;;;20.60;64.40;;;;;;5013211;28;20456;-75
2021/07/31 08:21:39;;;;;;;1.85;0.73;;;20.60;63.90;;;;;;5013588;28;20022;-75
2021/07/31 08:24:06;;;;;;;3.80;1.02;;;20.60;63.60;;;;;;5012744;28;20650;-76
2021/07/31 08:26:32;;;;;;;3.53;1.08;;;20.60;63.20;;;;;;5013462;28;20030;-75
2021/07/31 08:28:57;;;;;;;6.32;1.02;;;20.60;63.70;;;;;;5012587;28;20073;-75
2021/07/31 08:31:23;;;;;;;4.32;1.02;;;20.70;63.10;;;;;;5013277;28;20081;-75
2021/07/31 08:33:49;;;;;;;4.35;0.95;;;20.80;63.30;;;;;;5012708;28;20045;-76
2021/07/31 08:36:14;;;;;;;2.00;0.93;;;20.80;63.40;;;;;;5013217;28;20069;-75
2021/07/31 08:38:40;;;;;;;7.30;0.98;;;20.80;62.30;;;;;;5013112;28;20459;-75
2021/07/31 08:41:07;;;;;;;5.43;1.30;;;20.80;62.60;;;;;;5012746;28;20116;-75
2021/07/31 08:43:33;;;;;;;3.13;0.93;;;20.90;63.00;;;;;;5013240;28;20525;-74
2021/07/31 08:46:08;;;;;;;3.63;1.10;;;20.90;63.30;;;;;;5012645;28;20017;-75
2021/07/31 08:48:34;;;;;;;4.45;0.88;;;21.00;62.60;;;;;;5013154;28;20026;-75
2021/07/31 08:51:01;;;;;;;3.17;1.10;;;21.00;62.20;;;;;;5012379;28;20451;-75
2021/07/31 08:53:30;;;;;;;4.28;1.00;;;20.90;62.30;;;;;;5012937;28;20419;-75
2021/07/31 08:55:59;;;;;;;2.97;0.90;;;20.90;63.00;;;;;;5012104;28;20050;-74
2021/07/31 08:58:25;;;;;;;3.95;0.85;;;21.00;62.60;;;;;;5014013;28;20049;-75
2021/07/31 09:00:53;;;;;;;3.30;0.50;;;21.00;62.80;;;;;;5013097;28;20487;-76
2021/07/31 09:03:19;;;;;;;3.42;0.82;;;21.00;61.10;;;;;;5012115;28;20056;-74
2021/07/31 09:05:45;;;;;;;3.60;0.90;;;21.10;61.30;;;;;;5013729;28;20021;-75
2021/07/31 09:08:11;;;;;;;2.15;0.85;;;21.30;61.40;;;;;;5027444;28;20231;-75
2021/07/31 09:10:41;;;;;;;1.58;0.90;;;21.40;60.50;;;;;;5012784;28;20026;-74
2021/07/31 09:13:10;;;;;;;3.03;0.70;;;21.40;60.50;;;;;;5013100;28;20751;-75
2021/07/31 09:15:54;;;;;;;5.03;1.17;;;21.50;59.90;;;;;;5011428;28;20044;-73
2021/07/31 09:18:31;;;;;;;3.08;0.70;;;21.40;60.60;;;;;;5005827;28;20039;-75
2021/07/31 09:21:09;;;;;;;4.22;0.93;;;21.30;60.50;;;;;;5010730;28;20025;-75
2021/07/31 09:23:46;;;;;;;4.65;1.00;;;21.30;60.30;;;;;;5011981;28;20026;-75
2021/07/31 09:26:18;;;;;;;3.20;1.13;;;21.30;61.00;;;;;;5008708;28;20062;-75
2021/07/31 09:28:46;;;;;;;4.00;1.27;;;21.30;59.70;;;;;;5012032;28;20041;-75
2021/07/31 09:31:20;;;;;;;4.35;0.98;;;21.30;59.70;;;;;;5008890;28;20112;-75
2021/07/31 09:33:48;;;;;;;4.22;1.10;;;21.40;60.80;;;;;;5011755;28;20022;-76
2021/07/31 09:36:14;;;;;;;5.25;0.90;;;21.40;60.40;;;;;;5012925;28;20451;-76
2021/07/31 09:38:49;;;;;;;3.25;1.05;;;21.40;59.40;;;;;;5011603;28;20034;-75
2021/07/31 09:41:22;;;;;;;1.98;1.02;;;21.40;60.00;;;;;;5009455;28;20719;-75
2021/07/31 09:44:02;;;;;;;7.40;0.98;;;21.50;60.50;;;;;;5010873;28;20022;-76
2021/07/31 09:46:37;;;;;;;2.20;0.85;;;21.50;60.60;;;;;;5008979;28;20101;-76
2021/07/31 09:49:04;;;;;;;4.53;0.90;;;21.60;60.00;;;;;;5011564;28;20034;-75
2021/07/31 09:51:39;;;;;;;2.30;0.85;;;21.60;59.40;;;;;;5011127;28;20026;-75
2021/07/31 09:54:07;;;;;;;4.53;0.98;;;21.70;59.50;;;;;;5010933;28;20042;-74
2021/07/31 09:56:41;;;;;;;3.97;0.93;;;21.70;58.70;;;;;;5011456;28;20034;-76
2021/07/31 09:59:08;;;;;;;3.35;0.85;;;21.60;59.10;;;;;;5009630;28;20069;-78
2021/07/31 10:01:37;;;;;;;3.33;1.10;;;21.50;59.80;;;;;;5011307;28;20033;-79
2021/07/31 10:04:04;;;;;;;3.40;0.80;;;21.50;60.30;;;;;;5011799;28;20049;-79
2021/07/31 10:06:33;;;;;;;3.10;0.98;;;21.60;60.80;;;;;;5027916;28;20084;-78
2021/07/31 10:09:07;;;;;;;2.95;0.82;;;21.70;59.50;;;;;;5011426;28;20030;-78
2021/07/31 10:11:44;;;;;;;5.00;1.15;;;21.70;59.90;;;;;;5009897;28;20041;-79
2021/07/31 10:14:11;;;;;;;2.28;1.10;;;21.70;59.10;;;;;;5028262;28;20441;-78
2021/07/31 10:16:45;;;;;;;4.07;1.60;;;21.80;58.70;;;;;;5011660;28;20083;-78
2021/07/31 10:19:12;;;;;;;6.63;0.85;;;21.90;59.30;;;;;;5007757;28;20034;-81
2021/07/31 10:22:00;;;;;;;2.15;0.75;;;21.90;59.20;;;;;;5018793;28;20102;-81
2021/07/31 10:24:30;;;;;;;4.05;0.90;;;22.00;59.10;;;;;;5018581;28;20026;-81
2021/07/31 10:27:17;;;;;;;6.57;1.25;;;22.10;59.00;;;;;;5017417;28;20037;-80
2021/07/31 10:29:48;;;;;;;2.50;0.65;;;22.30;58.80;;;;;;5014643;28;20037;-82
2021/07/31 10:32:19;;;;;;;2.03;0.83;;;22.30;57.90;;;;;;5017322;28;20120;-81
2021/07/31 10:35:03;;;;;;;2.95;0.82;;;22.40;57.50;;;;;;5017133;28;20267;-81
2021/07/31 10:37:29;;;;;;;2.75;0.88;;;22.30;57.10;;;;;;5017552;28;20395;-82
2021/07/31 10:39:56;;;;;;;3.40;0.80;;;22.30;57.10;;;;;;5015181;28;20042;-78
2021/07/31 10:42:22;;;;;;;6.22;1.20;;;22.30;56.70;;;;;;5015350;28;20265;-80
2021/07/31 10:45:25;;;;;;;3.22;0.90;;;22.40;56.70;;;;;;5014365;28;20029;-79
2021/07/31 10:47:55;;;;;;;4.47;1.00;;;22.60;56.00;;;;;;4995634;28;20033;-79
2021/07/31 10:50:26;;;;;;;2.25;0.80;;;22.60;55.70;;;;;;5017128;28;20033;-79
2021/07/31 10:52:54;;;;;;;2.65;0.60;;;22.60;56.30;;;;;;5019369;28;20014;-79
2021/07/31 10:55:20;;;;;;;2.00;0.50;;;22.60;56.60;;;;;;5014796;28;20072;-77
2021/07/31 10:57:58;;;;;;;2.00;0.90;;;22.50;55.90;;;;;;5018065;28;20073;-83
2021/07/31 11:00:47;;;;;;;2.95;0.80;;;22.50;56.10;;;;;;4999644;28;20499;-84
2021/07/31 11:03:22;;;;;;;2.60;0.70;;;22.60;54.30;;;;;;4998098;28;20108;-82
2021/07/31 11:05:48;;;;;;;5.10;0.80;;;22.80;55.90;;;;;;4998557;28;20121;-82
2021/07/31 11:08:13;;;;;;;1.55;0.80;;;22.80;55.00;;;;;;5004502;28;20113;-80
2021/07/31 11:10:47;;;;;;;3.28;0.88;;;22.80;55.10;;;;;;5016372;28;20022;-77
2021/07/31 11:13:18;;;;;;;3.28;0.80;;;22.80;53.20;;;;;;5017644;28;20533;-79
2021/07/31 11:15:58;;;;;;;2.70;0.95;;;22.90;53.80;;;;;;5018054;28;20471;-80
2021/07/31 11:18:33;;;;;;;2.60;0.60;;;22.80;53.60;;;;;;5017460;28;20038;-77
2021/07/31 11:21:13;;;;;;;5.25;0.63;;;22.90;54.50;;;;;;5017052;28;20021;-79
2021/07/31 11:23:58;;;;;;;3.40;0.95;;;22.80;54.50;;;;;;5018188;28;20144;-78
2021/07/31 11:26:39;;;;;;;3.70;0.65;;;22.80;53.80;;;;;;5018057;28;20042;-78
2021/07/31 11:29:08;;;;;;;2.40;0.77;;;22.80;53.60;;;;;;5018554;28;20030;-77
2021/07/31 11:31:36;;;;;;;4.10;1.02;;;22.80;53.70;;;;;;5017895;28;20030;-80
2021/07/31 11:34:08;;;;;;;2.65;0.70;;;22.90;54.60;;;;;;5014301;28;20439;-79
2021/07/31 11:36:37;;;;;;;1.08;0.65;;;23.00;54.40;;;;;;5014925;28;21025;-81
2021/07/31 11:39:05;;;;;;;2.30;0.85;;;23.30;54.50;;;;;;5014153;28;20064;-80
2021/07/31 11:41:43;;;;;;;1.85;0.70;;;23.30;54.30;;;;;;5004172;28;20427;-77
2021/07/31 11:44:10;;;;;;;1.92;0.55;;;23.40;53.10;;;;;;4996179;28;20031;-78
2021/07/31 11:46:46;;;;;;;2.80;1.02;;;23.50;53.60;;;;;;5013860;28;20026;-77
2021/07/31 11:49:25;;;;;;;5.13;1.05;;;23.40;53.20;;;;;;5012562;28;20120;-77
2021/07/31 11:51:53;;;;;;;1.67;1.00;;;23.30;52.30;;;;;;5014377;28;20096;-76
2021/07/31 11:54:19;;;;;;;2.40;1.20;;;23.40;52.60;;;;;;5013740;28;20032;-78
2021/07/31 11:56:48;;;;;;;3.92;1.20;;;23.60;54.20;;;;;;5013326;28;20030;-77
2021/07/31 11:59:28;;;;;;;3.65;0.80;;;23.80;52.40;;;;;;5012500;28;20234;-77
2021/07/31 12:01:57;;;;;;;2.75;0.65;;;23.80;52.00;;;;;;5013086;28;20088;-77
2021/07/31 12:04:45;;;;;;;4.72;0.70;;;24.00;52.60;;;;;;5014401;28;20125;-78
2021/07/31 12:07:18;;;;;;;1.85;0.93;;;24.00;51.70;;;;;;5012976;28;20053;-77
2021/07/31 12:10:01;;;;;;;1.67;0.77;;;23.90;52.40;;;;;;5013188;28;20041;-78
2021/07/31 12:12:27;;;;;;;2.65;0.95;;;23.90;52.60;;;;;;5013228;28;20065;-78
2021/07/31 12:15:13;;;;;;;2.70;1.10;;;24.00;52.60;;;;;;5013172;28;20451;-78
2021/07/31 12:17:45;;;;;;;4.07;0.85;;;24.00;50.60;;;;;;5001101;28;20124;-77
2021/07/31 12:20:11;;;;;;;4.15;0.80;;;23.90;50.90;;;;;;5010783;28;20045;-80
2021/07/31 12:22:50;;;;;;;2.10;0.80;;;23.90;51.60;;;;;;5013601;28;20026;-80
2021/07/31 12:25:17;;;;;;;1.80;0.70;;;24.00;50.60;;;;;;5012487;28;20030;-81
2021/07/31 12:28:01;;;;;;;7.93;1.17;;;24.10;51.10;;;;;;5013128;28;20038;-79
2021/07/31 12:30:34;;;;;;;5.70;1.60;;;24.20;50.60;;;;;;5011800;28;20488;-81
2021/07/31 12:33:02;;;;;;;6.88;3.45;;;24.40;50.90;;;;;;5013401;28;20394;-81
2021/07/31 12:35:36;;;;;;;5.28;1.90;;;24.50;50.50;;;;;;5013647;28;20093;-80
2021/07/31 12:38:23;;;;;;;3.25;1.50;;;24.50;50.20;;;;;;5012629;28;20030;-81
2021/07/31 12:40:57;;;;;;;3.30;1.38;;;24.50;49.90;;;;;;4998413;28;20030;-80
2021/07/31 12:43:27;;;;;;;3.63;1.15;;;24.40;50.40;;;;;;5013847;28;20515;-81
2021/07/31 12:45:54;;;;;;;1.98;0.80;;;24.40;50.50;;;;;;5013872;28;20036;-81
2021/07/31 12:48:20;;;;;;;2.55;1.27;;;24.60;50.60;;;;;;5013154;28;20036;-81
2021/07/31 12:50:46;;;;;;;3.05;0.90;;;24.70;50.00;;;;;;5013327;28;20172;-81
2021/07/31 12:53:13;;;;;;;5.72;1.10;;;24.90;49.30;;;;;;5013180;28;20142;-79